Etusivu
METAR-TAF:

METAR-TAF

Lentoasemat :

Orange, Ranska

Leveyspiiri: 44-08N, Pituuspiiri: 004-50E, korkeus merenpinnasta: 60 m

Tämänhetkinen sää

Tämä raportti tehtiin 15 minuuttia sitten, kello 18.30 UTC
Tuuli 15 kn pohjoisen/luoteesta
Lämpötila 10°C
Kosteus 53%
Ilmanpaine 1005 hPa
Näkyvyys 10 km tai enemmän
ei pilviä alle 1500 m:ssä eikä cumulonimbus-pilviä

METAR: LFMO 121830Z AUTO 34015KT CAVOK 10/01 Q1005 BECMG 35015G25KT

Aika: 19:45 (18:45 UTC)

Sääennuste

Tämä raportti tehtiin 9 tuntia ja 5 minuuttia sitten, kello 09.40 UTC
Ennuste voimassa 12. päivästä klo 09 UTC - 13. päivään klo 09 UTC
Tuuli 15 kn pohjoisen/luoteesta puuskistuen 25 kn:hen
Näkyvyys 10 km tai enemmän
ei pilviä alle 1500 m:ssä eikä cumulonimbus-pilviä
Ajoittain
12. päivästä klo 09 UTC - 12. päivään klo 16 UTC
Tuuli 25 kn pohjoisesta puuskistuen 35 kn:hen

TAF: LFMO 120940Z 1209/1309 34015G25KT CAVOK TEMPO 1209/1216 35025G35KT

Säähavainnot ja -ennusteet yli 4000 lentoasemalta (METAR- ja TAF-raportit).

Käytössä olevat sääasemat on merkitty karttaan keltaisilla ja punaisilla pisteillä.

Aseta hiiri pisteen päälle nähdäksesi sääaseman nimen.

Klikkaa sitten nähdäksesi säähavainnot ja -ennusteet.

Kartan vaihtaminen: klikkaa mustalla rastilla varustettuja vihreitä pisteitä, niin voit zoomata sisään; viivalla varustettua vihreää pistettä, niin voit zoomata ulos tai vihreitä nuolia, niin pääset viereisille kartoille.


METAR-TAF: